sensor_id;sensor_type;location;lat;lon;timestamp;P1;durP1;ratioP1;P2;durP2;ratioP2
6027;SDS011;3042;43.194;27.646;2022-12-07T00:01:51;373.07;;;175.07;;
6027;SDS011;3042;43.194;27.646;2022-12-07T00:04:18;382.80;;;172.47;;
6027;SDS011;3042;43.194;27.646;2022-12-07T00:06:51;394.23;;;169.00;;
6027;SDS011;3042;43.194;27.646;2022-12-07T00:09:19;373.77;;;173.87;;
6027;SDS011;3042;43.194;27.646;2022-12-07T00:11:48;389.27;;;184.70;;
6027;SDS011;3042;43.194;27.646;2022-12-07T00:14:16;353.33;;;163.70;;
6027;SDS011;3042;43.194;27.646;2022-12-07T00:16:44;374.90;;;172.23;;
6027;SDS011;3042;43.194;27.646;2022-12-07T00:19:12;387.00;;;173.23;;
6027;SDS011;3042;43.194;27.646;2022-12-07T00:21:40;376.43;;;166.03;;
6027;SDS011;3042;43.194;27.646;2022-12-07T00:24:10;373.97;;;171.27;;
6027;SDS011;3042;43.194;27.646;2022-12-07T00:26:38;386.13;;;172.50;;
6027;SDS011;3042;43.194;27.646;2022-12-07T00:29:07;397.77;;;171.97;;
6027;SDS011;3042;43.194;27.646;2022-12-07T00:31:37;382.67;;;178.67;;
6027;SDS011;3042;43.194;27.646;2022-12-07T00:34:23;384.33;;;176.13;;
6027;SDS011;3042;43.194;27.646;2022-12-07T00:36:50;375.07;;;177.67;;
6027;SDS011;3042;43.194;27.646;2022-12-07T00:39:19;381.37;;;180.17;;
6027;SDS011;3042;43.194;27.646;2022-12-07T00:41:46;383.27;;;178.77;;
6027;SDS011;3042;43.194;27.646;2022-12-07T00:44:13;383.70;;;180.93;;
6027;SDS011;3042;43.194;27.646;2022-12-07T00:46:40;376.27;;;171.93;;
6027;SDS011;3042;43.194;27.646;2022-12-07T00:49:08;385.27;;;169.37;;
6027;SDS011;3042;43.194;27.646;2022-12-07T00:51:36;387.33;;;170.00;;
6027;SDS011;3042;43.194;27.646;2022-12-07T00:54:03;397.20;;;181.60;;
6027;SDS011;3042;43.194;27.646;2022-12-07T00:56:32;418.00;;;187.80;;
6027;SDS011;3042;43.194;27.646;2022-12-07T00:58:59;389.30;;;181.07;;
6027;SDS011;3042;43.194;27.646;2022-12-07T01:01:29;407.03;;;187.17;;
6027;SDS011;3042;43.194;27.646;2022-12-07T01:03:57;415.97;;;193.57;;
6027;SDS011;3042;43.194;27.646;2022-12-07T01:06:26;407.50;;;194.20;;
6027;SDS011;3042;43.194;27.646;2022-12-07T01:08:54;398.30;;;199.33;;
6027;SDS011;3042;43.194;27.646;2022-12-07T01:11:22;382.00;;;185.70;;
6027;SDS011;3042;43.194;27.646;2022-12-07T01:13:51;378.00;;;183.33;;
6027;SDS011;3042;43.194;27.646;2022-12-07T01:16:20;372.77;;;185.27;;
6027;SDS011;3042;43.194;27.646;2022-12-07T01:18:51;383.53;;;181.07;;
6027;SDS011;3042;43.194;27.646;2022-12-07T01:21:20;380.20;;;177.63;;
6027;SDS011;3042;43.194;27.646;2022-12-07T01:23:51;374.33;;;181.37;;
6027;SDS011;3042;43.194;27.646;2022-12-07T01:26:19;392.00;;;188.53;;
6027;SDS011;3042;43.194;27.646;2022-12-07T01:28:47;402.07;;;190.37;;
6027;SDS011;3042;43.194;27.646;2022-12-07T01:31:17;403.13;;;192.20;;
6027;SDS011;3042;43.194;27.646;2022-12-07T01:33:47;400.17;;;185.77;;
6027;SDS011;3042;43.194;27.646;2022-12-07T01:36:16;398.03;;;182.60;;
6027;SDS011;3042;43.194;27.646;2022-12-07T01:38:44;413.63;;;191.23;;
6027;SDS011;3042;43.194;27.646;2022-12-07T01:41:13;414.73;;;184.83;;
6027;SDS011;3042;43.194;27.646;2022-12-07T01:46:44;423.30;;;194.93;;
6027;SDS011;3042;43.194;27.646;2022-12-07T01:49:15;426.03;;;195.20;;
6027;SDS011;3042;43.194;27.646;2022-12-07T01:51:47;393.73;;;186.27;;
6027;SDS011;3042;43.194;27.646;2022-12-07T01:54:17;418.90;;;188.70;;
6027;SDS011;3042;43.194;27.646;2022-12-07T01:56:47;425.97;;;187.83;;
6027;SDS011;3042;43.194;27.646;2022-12-07T01:59:18;369.58;;;179.63;;
6027;SDS011;3042;43.194;27.646;2022-12-07T02:01:48;402.80;;;182.83;;
6027;SDS011;3042;43.194;27.646;2022-12-07T02:04:15;398.47;;;186.67;;
6027;SDS011;3042;43.194;27.646;2022-12-07T02:06:42;401.17;;;184.30;;
6027;SDS011;3042;43.194;27.646;2022-12-07T02:09:10;424.87;;;185.40;;
6027;SDS011;3042;43.194;27.646;2022-12-07T02:11:37;424.90;;;194.47;;
6027;SDS011;3042;43.194;27.646;2022-12-07T02:14:05;424.93;;;195.60;;
6027;SDS011;3042;43.194;27.646;2022-12-07T02:16:34;417.43;;;188.77;;
6027;SDS011;3042;43.194;27.646;2022-12-07T02:19:29;406.03;;;184.57;;
6027;SDS011;3042;43.194;27.646;2022-12-07T02:22:36;401.50;;;185.93;;
6027;SDS011;3042;43.194;27.646;2022-12-07T02:25:32;407.73;;;189.70;;
6027;SDS011;3042;43.194;27.646;2022-12-07T02:28:17;440.63;;;193.27;;
6027;SDS011;3042;43.194;27.646;2022-12-07T02:30:51;420.03;;;188.37;;
6027;SDS011;3042;43.194;27.646;2022-12-07T02:33:23;400.37;;;180.73;;
6027;SDS011;3042;43.194;27.646;2022-12-07T02:35:55;391.17;;;182.47;;
6027;SDS011;3042;43.194;27.646;2022-12-07T02:38:26;413.50;;;192.27;;
6027;SDS011;3042;43.194;27.646;2022-12-07T02:41:02;408.07;;;189.37;;
6027;SDS011;3042;43.194;27.646;2022-12-07T02:43:33;416.00;;;194.13;;
6027;SDS011;3042;43.194;27.646;2022-12-07T02:46:06;414.23;;;185.73;;
6027;SDS011;3042;43.194;27.646;2022-12-07T02:48:38;415.10;;;188.03;;
6027;SDS011;3042;43.194;27.646;2022-12-07T02:51:06;424.20;;;192.03;;
6027;SDS011;3042;43.194;27.646;2022-12-07T02:53:34;420.00;;;185.83;;
6027;SDS011;3042;43.194;27.646;2022-12-07T02:56:04;420.67;;;195.70;;
6027;SDS011;3042;43.194;27.646;2022-12-07T02:58:44;430.27;;;192.27;;
6027;SDS011;3042;43.194;27.646;2022-12-07T03:01:24;403.93;;;177.70;;
6027;SDS011;3042;43.194;27.646;2022-12-07T03:03:58;418.53;;;194.47;;
6027;SDS011;3042;43.194;27.646;2022-12-07T03:06:34;410.43;;;189.77;;
6027;SDS011;3042;43.194;27.646;2022-12-07T03:09:11;400.47;;;184.27;;
6027;SDS011;3042;43.194;27.646;2022-12-07T03:11:44;418.37;;;194.50;;
6027;SDS011;3042;43.194;27.646;2022-12-07T03:14:15;408.93;;;184.30;;
6027;SDS011;3042;43.194;27.646;2022-12-07T03:16:47;421.73;;;194.40;;
6027;SDS011;3042;43.194;27.646;2022-12-07T03:19:20;422.43;;;202.37;;
6027;SDS011;3042;43.194;27.646;2022-12-07T03:21:51;417.03;;;192.27;;
6027;SDS011;3042;43.194;27.646;2022-12-07T03:24:24;402.53;;;188.30;;
6027;SDS011;3042;43.194;27.646;2022-12-07T03:26:58;412.93;;;185.97;;
6027;SDS011;3042;43.194;27.646;2022-12-07T03:29:31;407.60;;;188.77;;
6027;SDS011;3042;43.194;27.646;2022-12-07T03:32:05;410.10;;;184.87;;
6027;SDS011;3042;43.194;27.646;2022-12-07T03:34:38;404.60;;;176.63;;
6027;SDS011;3042;43.194;27.646;2022-12-07T03:37:11;423.87;;;197.73;;
6027;SDS011;3042;43.194;27.646;2022-12-07T03:39:44;423.80;;;194.87;;
6027;SDS011;3042;43.194;27.646;2022-12-07T03:42:17;419.80;;;190.50;;
6027;SDS011;3042;43.194;27.646;2022-12-07T03:44:45;414.47;;;179.77;;
6027;SDS011;3042;43.194;27.646;2022-12-07T03:47:15;389.47;;;181.27;;
6027;SDS011;3042;43.194;27.646;2022-12-07T03:49:54;461.47;;;277.30;;
6027;SDS011;3042;43.194;27.646;2022-12-07T03:52:26;403.13;;;187.87;;
6027;SDS011;3042;43.194;27.646;2022-12-07T03:55:01;424.17;;;203.60;;
6027;SDS011;3042;43.194;27.646;2022-12-07T03:57:31;433.00;;;206.87;;
6027;SDS011;3042;43.194;27.646;2022-12-07T04:00:00;395.53;;;184.13;;
6027;SDS011;3042;43.194;27.646;2022-12-07T04:02:34;397.13;;;187.83;;
6027;SDS011;3042;43.194;27.646;2022-12-07T04:05:02;396.43;;;192.60;;
6027;SDS011;3042;43.194;27.646;2022-12-07T04:07:30;411.50;;;193.93;;
6027;SDS011;3042;43.194;27.646;2022-12-07T04:09:57;412.60;;;195.90;;
6027;SDS011;3042;43.194;27.646;2022-12-07T04:12:24;411.33;;;188.27;;
6027;SDS011;3042;43.194;27.646;2022-12-07T04:14:52;402.57;;;183.27;;
6027;SDS011;3042;43.194;27.646;2022-12-07T04:17:19;391.77;;;186.00;;
6027;SDS011;3042;43.194;27.646;2022-12-07T04:19:47;385.00;;;181.47;;
6027;SDS011;3042;43.194;27.646;2022-12-07T04:22:15;391.63;;;190.00;;
6027;SDS011;3042;43.194;27.646;2022-12-07T04:24:42;389.97;;;199.70;;
6027;SDS011;3042;43.194;27.646;2022-12-07T04:27:09;384.83;;;199.20;;
6027;SDS011;3042;43.194;27.646;2022-12-07T04:29:36;379.80;;;193.23;;
6027;SDS011;3042;43.194;27.646;2022-12-07T04:32:04;378.50;;;198.43;;
6027;SDS011;3042;43.194;27.646;2022-12-07T04:34:31;388.00;;;209.37;;
6027;SDS011;3042;43.194;27.646;2022-12-07T04:37:00;385.33;;;199.83;;
6027;SDS011;3042;43.194;27.646;2022-12-07T04:39:27;389.77;;;206.60;;
6027;SDS011;3042;43.194;27.646;2022-12-07T04:41:56;424.77;;;234.30;;
6027;SDS011;3042;43.194;27.646;2022-12-07T04:44:24;415.43;;;211.57;;
6027;SDS011;3042;43.194;27.646;2022-12-07T04:46:52;408.40;;;217.57;;
6027;SDS011;3042;43.194;27.646;2022-12-07T04:49:20;401.13;;;202.00;;
6027;SDS011;3042;43.194;27.646;2022-12-07T04:51:48;378.43;;;195.23;;
6027;SDS011;3042;43.194;27.646;2022-12-07T04:54:17;386.47;;;196.77;;
6027;SDS011;3042;43.194;27.646;2022-12-07T04:56:44;428.97;;;223.47;;
6027;SDS011;3042;43.194;27.646;2022-12-07T04:59:12;403.17;;;196.33;;
6027;SDS011;3042;43.194;27.646;2022-12-07T05:01:41;419.87;;;213.60;;
6027;SDS011;3042;43.194;27.646;2022-12-07T05:04:09;404.43;;;196.57;;
6027;SDS011;3042;43.194;27.646;2022-12-07T05:06:36;401.60;;;194.37;;
6027;SDS011;3042;43.194;27.646;2022-12-07T05:09:03;389.70;;;188.53;;
6027;SDS011;3042;43.194;27.646;2022-12-07T05:11:32;403.10;;;191.57;;
6027;SDS011;3042;43.194;27.646;2022-12-07T05:14:07;396.80;;;196.73;;
6027;SDS011;3042;43.194;27.646;2022-12-07T05:16:37;399.90;;;192.00;;
6027;SDS011;3042;43.194;27.646;2022-12-07T05:19:05;396.87;;;195.97;;
6027;SDS011;3042;43.194;27.646;2022-12-07T05:21:33;381.93;;;198.13;;
6027;SDS011;3042;43.194;27.646;2022-12-07T05:24:01;379.30;;;187.07;;
6027;SDS011;3042;43.194;27.646;2022-12-07T05:26:29;384.43;;;190.23;;
6027;SDS011;3042;43.194;27.646;2022-12-07T05:28:57;389.77;;;210.97;;
6027;SDS011;3042;43.194;27.646;2022-12-07T05:31:26;376.70;;;203.47;;
6027;SDS011;3042;43.194;27.646;2022-12-07T05:33:53;361.93;;;198.93;;
6027;SDS011;3042;43.194;27.646;2022-12-07T05:36:20;379.13;;;212.10;;
6027;SDS011;3042;43.194;27.646;2022-12-07T05:38:48;369.33;;;211.60;;
6027;SDS011;3042;43.194;27.646;2022-12-07T05:41:16;375.53;;;213.07;;
6027;SDS011;3042;43.194;27.646;2022-12-07T05:44:04;371.00;;;202.57;;
6027;SDS011;3042;43.194;27.646;2022-12-07T05:46:32;375.30;;;209.37;;
6027;SDS011;3042;43.194;27.646;2022-12-07T05:48:59;390.63;;;208.77;;
6027;SDS011;3042;43.194;27.646;2022-12-07T05:51:27;395.57;;;215.00;;
6027;SDS011;3042;43.194;27.646;2022-12-07T05:53:54;394.03;;;233.50;;
6027;SDS011;3042;43.194;27.646;2022-12-07T05:56:22;390.63;;;216.57;;
6027;SDS011;3042;43.194;27.646;2022-12-07T05:58:49;397.57;;;222.27;;
6027;SDS011;3042;43.194;27.646;2022-12-07T06:01:35;392.87;;;238.67;;
6027;SDS011;3042;43.194;27.646;2022-12-07T06:04:02;400.00;;;220.93;;
6027;SDS011;3042;43.194;27.646;2022-12-07T06:06:30;390.50;;;216.17;;
6027;SDS011;3042;43.194;27.646;2022-12-07T06:08:57;378.60;;;228.40;;
6027;SDS011;3042;43.194;27.646;2022-12-07T06:11:24;370.20;;;197.20;;
6027;SDS011;3042;43.194;27.646;2022-12-07T06:14:09;375.13;;;197.73;;
6027;SDS011;3042;43.194;27.646;2022-12-07T06:16:38;375.00;;;197.83;;
6027;SDS011;3042;43.194;27.646;2022-12-07T06:19:07;370.47;;;214.17;;
6027;SDS011;3042;43.194;27.646;2022-12-07T06:21:43;380.10;;;215.07;;
6027;SDS011;3042;43.194;27.646;2022-12-07T06:24:12;384.23;;;216.37;;
6027;SDS011;3042;43.194;27.646;2022-12-07T06:26:40;366.17;;;200.13;;
6027;SDS011;3042;43.194;27.646;2022-12-07T06:29:09;376.43;;;208.43;;
6027;SDS011;3042;43.194;27.646;2022-12-07T06:31:39;393.33;;;210.60;;
6027;SDS011;3042;43.194;27.646;2022-12-07T06:34:06;378.50;;;204.07;;
6027;SDS011;3042;43.194;27.646;2022-12-07T06:36:36;408.93;;;206.23;;
6027;SDS011;3042;43.194;27.646;2022-12-07T06:39:03;414.37;;;209.93;;
6027;SDS011;3042;43.194;27.646;2022-12-07T06:41:31;414.13;;;200.57;;
6027;SDS011;3042;43.194;27.646;2022-12-07T06:43:58;401.30;;;197.00;;
6027;SDS011;3042;43.194;27.646;2022-12-07T06:46:26;413.13;;;199.23;;
6027;SDS011;3042;43.194;27.646;2022-12-07T06:48:54;418.03;;;201.23;;
6027;SDS011;3042;43.194;27.646;2022-12-07T06:51:22;429.17;;;191.70;;
6027;SDS011;3042;43.194;27.646;2022-12-07T06:53:49;448.30;;;214.23;;
6027;SDS011;3042;43.194;27.646;2022-12-07T06:56:16;438.57;;;210.60;;
6027;SDS011;3042;43.194;27.646;2022-12-07T06:58:43;453.30;;;211.43;;
6027;SDS011;3042;43.194;27.646;2022-12-07T07:01:11;431.13;;;199.97;;
6027;SDS011;3042;43.194;27.646;2022-12-07T07:03:39;434.37;;;205.73;;
6027;SDS011;3042;43.194;27.646;2022-12-07T07:06:08;430.70;;;200.83;;
6027;SDS011;3042;43.194;27.646;2022-12-07T07:08:36;439.10;;;205.67;;
6027;SDS011;3042;43.194;27.646;2022-12-07T07:11:04;433.23;;;189.43;;
6027;SDS011;3042;43.194;27.646;2022-12-07T07:13:32;430.13;;;192.87;;
6027;SDS011;3042;43.194;27.646;2022-12-07T07:15:59;463.90;;;195.10;;
6027;SDS011;3042;43.194;27.646;2022-12-07T07:18:27;500.23;;;211.73;;
6027;SDS011;3042;43.194;27.646;2022-12-07T07:20:55;485.83;;;205.40;;
6027;SDS011;3042;43.194;27.646;2022-12-07T07:23:24;514.87;;;209.37;;
6027;SDS011;3042;43.194;27.646;2022-12-07T07:25:51;498.73;;;207.50;;
6027;SDS011;3042;43.194;27.646;2022-12-07T07:28:19;477.73;;;214.10;;
6027;SDS011;3042;43.194;27.646;2022-12-07T07:30:46;484.57;;;217.63;;
6027;SDS011;3042;43.194;27.646;2022-12-07T07:33:14;481.53;;;216.30;;
6027;SDS011;3042;43.194;27.646;2022-12-07T07:35:41;492.43;;;224.57;;
6027;SDS011;3042;43.194;27.646;2022-12-07T07:38:08;485.27;;;223.03;;
6027;SDS011;3042;43.194;27.646;2022-12-07T07:40:37;481.87;;;218.60;;
6027;SDS011;3042;43.194;27.646;2022-12-07T07:43:04;496.77;;;213.23;;
6027;SDS011;3042;43.194;27.646;2022-12-07T07:45:31;503.90;;;226.70;;
6027;SDS011;3042;43.194;27.646;2022-12-07T07:47:59;494.00;;;211.83;;
6027;SDS011;3042;43.194;27.646;2022-12-07T07:50:28;491.03;;;209.97;;
6027;SDS011;3042;43.194;27.646;2022-12-07T07:52:56;495.63;;;214.50;;
6027;SDS011;3042;43.194;27.646;2022-12-07T07:55:23;496.63;;;215.20;;
6027;SDS011;3042;43.194;27.646;2022-12-07T07:57:55;491.10;;;218.27;;
6027;SDS011;3042;43.194;27.646;2022-12-07T08:00:23;496.50;;;215.20;;
6027;SDS011;3042;43.194;27.646;2022-12-07T08:02:50;497.63;;;215.67;;
6027;SDS011;3042;43.194;27.646;2022-12-07T08:05:17;504.47;;;222.43;;
6027;SDS011;3042;43.194;27.646;2022-12-07T08:07:45;494.58;;;247.93;;
6027;SDS011;3042;43.194;27.646;2022-12-07T08:10:12;517.30;;;233.70;;
6027;SDS011;3042;43.194;27.646;2022-12-07T08:12:40;491.53;;;207.73;;
6027;SDS011;3042;43.194;27.646;2022-12-07T08:15:24;493.20;;;213.23;;
6027;SDS011;3042;43.194;27.646;2022-12-07T08:17:52;493.80;;;216.83;;
6027;SDS011;3042;43.194;27.646;2022-12-07T08:20:20;497.10;;;208.23;;
6027;SDS011;3042;43.194;27.646;2022-12-07T08:22:47;510.23;;;206.20;;
6027;SDS011;3042;43.194;27.646;2022-12-07T08:25:14;486.67;;;203.27;;
6027;SDS011;3042;43.194;27.646;2022-12-07T08:27:41;482.93;;;194.83;;
6027;SDS011;3042;43.194;27.646;2022-12-07T08:30:09;503.37;;;204.27;;
6027;SDS011;3042;43.194;27.646;2022-12-07T08:32:38;492.10;;;189.03;;
6027;SDS011;3042;43.194;27.646;2022-12-07T08:35:08;489.10;;;193.20;;
6027;SDS011;3042;43.194;27.646;2022-12-07T08:37:35;486.20;;;202.90;;
6027;SDS011;3042;43.194;27.646;2022-12-07T08:40:03;513.57;;;206.93;;
6027;SDS011;3042;43.194;27.646;2022-12-07T08:42:32;491.93;;;185.67;;
6027;SDS011;3042;43.194;27.646;2022-12-07T08:45:05;522.97;;;195.23;;
6027;SDS011;3042;43.194;27.646;2022-12-07T08:47:33;493.20;;;192.70;;
6027;SDS011;3042;43.194;27.646;2022-12-07T08:50:04;489.23;;;184.40;;
6027;SDS011;3042;43.194;27.646;2022-12-07T08:52:34;502.57;;;195.03;;
6027;SDS011;3042;43.194;27.646;2022-12-07T08:55:02;515.83;;;203.17;;
6027;SDS011;3042;43.194;27.646;2022-12-07T08:57:33;510.90;;;188.07;;
6027;SDS011;3042;43.194;27.646;2022-12-07T09:00:02;532.37;;;190.63;;
6027;SDS011;3042;43.194;27.646;2022-12-07T09:02:30;499.87;;;195.40;;
6027;SDS011;3042;43.194;27.646;2022-12-07T09:04:57;502.67;;;194.40;;
6027;SDS011;3042;43.194;27.646;2022-12-07T09:07:26;499.70;;;205.33;;
6027;SDS011;3042;43.194;27.646;2022-12-07T09:09:53;503.80;;;185.67;;
6027;SDS011;3042;43.194;27.646;2022-12-07T09:12:21;516.30;;;186.23;;
6027;SDS011;3042;43.194;27.646;2022-12-07T09:14:48;505.47;;;187.40;;
6027;SDS011;3042;43.194;27.646;2022-12-07T09:17:15;491.20;;;198.13;;
6027;SDS011;3042;43.194;27.646;2022-12-07T09:19:42;483.87;;;177.47;;
6027;SDS011;3042;43.194;27.646;2022-12-07T09:22:10;501.13;;;174.07;;
6027;SDS011;3042;43.194;27.646;2022-12-07T09:24:38;473.20;;;167.50;;
6027;SDS011;3042;43.194;27.646;2022-12-07T09:27:05;504.73;;;182.43;;
6027;SDS011;3042;43.194;27.646;2022-12-07T09:29:33;489.93;;;190.50;;
6027;SDS011;3042;43.194;27.646;2022-12-07T09:32:00;485.03;;;176.07;;
6027;SDS011;3042;43.194;27.646;2022-12-07T09:34:30;502.57;;;187.87;;
6027;SDS011;3042;43.194;27.646;2022-12-07T09:36:57;502.93;;;208.57;;
6027;SDS011;3042;43.194;27.646;2022-12-07T09:39:25;532.30;;;189.03;;
6027;SDS011;3042;43.194;27.646;2022-12-07T09:41:54;501.80;;;185.07;;
6027;SDS011;3042;43.194;27.646;2022-12-07T09:44:24;491.93;;;186.63;;
6027;SDS011;3042;43.194;27.646;2022-12-07T09:46:53;485.77;;;184.30;;
6027;SDS011;3042;43.194;27.646;2022-12-07T09:49:22;495.47;;;194.07;;
6027;SDS011;3042;43.194;27.646;2022-12-07T09:51:59;492.50;;;182.57;;
6027;SDS011;3042;43.194;27.646;2022-12-07T09:54:27;507.87;;;180.87;;
6027;SDS011;3042;43.194;27.646;2022-12-07T09:56:57;486.67;;;179.43;;
6027;SDS011;3042;43.194;27.646;2022-12-07T09:59:25;493.67;;;185.83;;
6027;SDS011;3042;43.194;27.646;2022-12-07T10:01:53;491.40;;;177.73;;
6027;SDS011;3042;43.194;27.646;2022-12-07T10:04:20;482.00;;;187.23;;
6027;SDS011;3042;43.194;27.646;2022-12-07T10:06:50;485.83;;;196.37;;
6027;SDS011;3042;43.194;27.646;2022-12-07T10:09:18;495.37;;;195.50;;
6027;SDS011;3042;43.194;27.646;2022-12-07T10:12:01;475.33;;;184.27;;
6027;SDS011;3042;43.194;27.646;2022-12-07T10:14:32;474.13;;;181.60;;
6027;SDS011;3042;43.194;27.646;2022-12-07T10:17:01;458.27;;;172.03;;
6027;SDS011;3042;43.194;27.646;2022-12-07T10:19:30;480.17;;;198.63;;
6027;SDS011;3042;43.194;27.646;2022-12-07T10:24:46;478.67;;;185.43;;
6027;SDS011;3042;43.194;27.646;2022-12-07T10:27:19;454.17;;;166.20;;
6027;SDS011;3042;43.194;27.646;2022-12-07T10:29:48;468.60;;;178.80;;
6027;SDS011;3042;43.194;27.646;2022-12-07T10:32:31;460.33;;;169.43;;
6027;SDS011;3042;43.194;27.646;2022-12-07T10:37:46;468.17;;;173.13;;
6027;SDS011;3042;43.194;27.646;2022-12-07T10:40:25;470.10;;;176.67;;
6027;SDS011;3042;43.194;27.646;2022-12-07T10:43:04;465.73;;;173.90;;
6027;SDS011;3042;43.194;27.646;2022-12-07T10:49:03;474.50;;;180.73;;
6027;SDS011;3042;43.194;27.646;2022-12-07T10:51:45;421.63;;;163.87;;
6027;SDS011;3042;43.194;27.646;2022-12-07T10:54:21;391.63;;;168.23;;
6027;SDS011;3042;43.194;27.646;2022-12-07T10:57:04;364.27;;;166.37;;
6027;SDS011;3042;43.194;27.646;2022-12-07T10:59:50;295.63;;;161.43;;
6027;SDS011;3042;43.194;27.646;2022-12-07T11:02:32;422.50;;;168.00;;
6027;SDS011;3042;43.194;27.646;2022-12-07T11:05:14;311.57;;;162.63;;
6027;SDS011;3042;43.194;27.646;2022-12-07T11:07:51;424.40;;;167.13;;
6027;SDS011;3042;43.194;27.646;2022-12-07T11:10:28;404.13;;;170.87;;
6027;SDS011;3042;43.194;27.646;2022-12-07T11:13:11;477.33;;;187.47;;
6027;SDS011;3042;43.194;27.646;2022-12-07T11:18:49;385.20;;;159.57;;
6027;SDS011;3042;43.194;27.646;2022-12-07T11:21:27;441.93;;;181.17;;
6027;SDS011;3042;43.194;27.646;2022-12-07T11:24:01;394.83;;;174.77;;
6027;SDS011;3042;43.194;27.646;2022-12-07T11:26:47;433.47;;;180.57;;
6027;SDS011;3042;43.194;27.646;2022-12-07T11:29:40;382.05;;;189.00;;
6027;SDS011;3042;43.194;27.646;2022-12-07T11:32:19;364.53;;;155.77;;
6027;SDS011;3042;43.194;27.646;2022-12-07T11:34:59;355.93;;;164.77;;
6027;SDS011;3042;43.194;27.646;2022-12-07T11:37:33;370.83;;;157.10;;
6027;SDS011;3042;43.194;27.646;2022-12-07T11:40:03;450.53;;;179.50;;
6027;SDS011;3042;43.194;27.646;2022-12-07T11:42:33;414.13;;;173.30;;
6027;SDS011;3042;43.194;27.646;2022-12-07T11:45:10;409.27;;;168.17;;
6027;SDS011;3042;43.194;27.646;2022-12-07T11:47:45;390.83;;;164.97;;
6027;SDS011;3042;43.194;27.646;2022-12-07T11:50:21;390.10;;;158.87;;
6027;SDS011;3042;43.194;27.646;2022-12-07T11:52:53;359.07;;;147.80;;
6027;SDS011;3042;43.194;27.646;2022-12-07T11:55:26;387.17;;;158.17;;
6027;SDS011;3042;43.194;27.646;2022-12-07T11:58:02;395.97;;;165.80;;
6027;SDS011;3042;43.194;27.646;2022-12-07T12:00:31;374.27;;;165.10;;
6027;SDS011;3042;43.194;27.646;2022-12-07T12:03:03;382.80;;;164.73;;
6027;SDS011;3042;43.194;27.646;2022-12-07T12:05:37;384.53;;;160.37;;
6027;SDS011;3042;43.194;27.646;2022-12-07T12:08:11;376.03;;;157.03;;
6027;SDS011;3042;43.194;27.646;2022-12-07T12:10:45;400.00;;;159.37;;
6027;SDS011;3042;43.194;27.646;2022-12-07T12:16:31;397.70;;;165.23;;
6027;SDS011;3042;43.194;27.646;2022-12-07T12:19:16;396.30;;;163.50;;
6027;SDS011;3042;43.194;27.646;2022-12-07T12:21:53;446.13;;;162.40;;
6027;SDS011;3042;43.194;27.646;2022-12-07T12:24:24;408.57;;;160.40;;
6027;SDS011;3042;43.194;27.646;2022-12-07T12:26:54;417.70;;;163.40;;
6027;SDS011;3042;43.194;27.646;2022-12-07T12:29:32;420.53;;;173.40;;
6027;SDS011;3042;43.194;27.646;2022-12-07T12:32:06;377.73;;;153.57;;
6027;SDS011;3042;43.194;27.646;2022-12-07T12:34:42;474.70;;;187.97;;
6027;SDS011;3042;43.194;27.646;2022-12-07T12:37:44;418.47;;;157.53;;
6027;SDS011;3042;43.194;27.646;2022-12-07T12:58:31;432.60;;;167.43;;
6027;SDS011;3042;43.194;27.646;2022-12-07T13:04:18;394.97;;;149.60;;
6027;SDS011;3042;43.194;27.646;2022-12-07T13:13:30;440.50;;;171.77;;
6027;SDS011;3042;43.194;27.646;2022-12-07T13:28:14;453.97;;;187.17;;
6027;SDS011;3042;43.194;27.646;2022-12-07T13:30:45;399.47;;;166.30;;
6027;SDS011;3042;43.194;27.646;2022-12-07T13:33:17;397.03;;;161.43;;
6027;SDS011;3042;43.194;27.646;2022-12-07T13:35:45;407.90;;;168.13;;
6027;SDS011;3042;43.194;27.646;2022-12-07T13:38:18;425.00;;;166.87;;
6027;SDS011;3042;43.194;27.646;2022-12-07T13:43:44;433.90;;;193.45;;
6027;SDS011;3042;43.194;27.646;2022-12-07T13:46:16;443.00;;;169.80;;
6027;SDS011;3042;43.194;27.646;2022-12-07T13:48:48;480.60;;;222.45;;
6027;SDS011;3042;43.194;27.646;2022-12-07T13:51:17;458.47;;;182.33;;
6027;SDS011;3042;43.194;27.646;2022-12-07T13:53:47;506.60;;;177.20;;
6027;SDS011;3042;43.194;27.646;2022-12-07T13:56:17;509.57;;;189.50;;
6027;SDS011;3042;43.194;27.646;2022-12-07T13:58:44;502.17;;;198.37;;
6027;SDS011;3042;43.194;27.646;2022-12-07T14:01:11;497.60;;;169.97;;
6027;SDS011;3042;43.194;27.646;2022-12-07T14:03:39;502.53;;;172.53;;
6027;SDS011;3042;43.194;27.646;2022-12-07T14:06:13;533.77;;;175.03;;
6027;SDS011;3042;43.194;27.646;2022-12-07T14:08:42;482.53;;;175.73;;
6027;SDS011;3042;43.194;27.646;2022-12-07T14:11:12;466.47;;;180.63;;
6027;SDS011;3042;43.194;27.646;2022-12-07T14:13:49;462.67;;;171.53;;
6027;SDS011;3042;43.194;27.646;2022-12-07T14:16:23;486.93;;;172.20;;
6027;SDS011;3042;43.194;27.646;2022-12-07T14:18:53;498.53;;;178.23;;
6027;SDS011;3042;43.194;27.646;2022-12-07T14:21:21;524.37;;;181.00;;
6027;SDS011;3042;43.194;27.646;2022-12-07T14:26:45;551.83;;;251.02;;
6027;SDS011;3042;43.194;27.646;2022-12-07T14:29:32;424.13;;;174.90;;
6027;SDS011;3042;43.194;27.646;2022-12-07T14:32:13;474.50;;;191.07;;
6027;SDS011;3042;43.194;27.646;2022-12-07T14:34:55;405.23;;;169.30;;
6027;SDS011;3042;43.194;27.646;2022-12-07T14:37:27;423.60;;;166.80;;
6027;SDS011;3042;43.194;27.646;2022-12-07T14:39:55;477.52;;;245.52;;
6027;SDS011;3042;43.194;27.646;2022-12-07T14:42:23;508.27;;;179.37;;
6027;SDS011;3042;43.194;27.646;2022-12-07T14:44:55;421.53;;;164.47;;
6027;SDS011;3042;43.194;27.646;2022-12-07T14:47:23;434.93;;;170.37;;
6027;SDS011;3042;43.194;27.646;2022-12-07T14:49:51;478.83;;;175.53;;
6027;SDS011;3042;43.194;27.646;2022-12-07T14:52:19;424.90;;;166.67;;
6027;SDS011;3042;43.194;27.646;2022-12-07T14:54:49;473.83;;;173.83;;
6027;SDS011;3042;43.194;27.646;2022-12-07T14:57:16;454.67;;;187.80;;
6027;SDS011;3042;43.194;27.646;2022-12-07T14:59:43;423.77;;;170.33;;
6027;SDS011;3042;43.194;27.646;2022-12-07T15:02:12;449.13;;;180.77;;
6027;SDS011;3042;43.194;27.646;2022-12-07T15:04:40;437.93;;;171.17;;
6027;SDS011;3042;43.194;27.646;2022-12-07T15:07:10;414.20;;;173.00;;
6027;SDS011;3042;43.194;27.646;2022-12-07T15:09:44;497.57;;;184.70;;
6027;SDS011;3042;43.194;27.646;2022-12-07T15:12:12;491.53;;;180.47;;
6027;SDS011;3042;43.194;27.646;2022-12-07T15:14:39;470.93;;;173.33;;
6027;SDS011;3042;43.194;27.646;2022-12-07T15:17:07;466.03;;;172.43;;
6027;SDS011;3042;43.194;27.646;2022-12-07T15:19:38;472.20;;;170.90;;
6027;SDS011;3042;43.194;27.646;2022-12-07T15:22:05;532.17;;;188.40;;
6027;SDS011;3042;43.194;27.646;2022-12-07T15:24:33;464.57;;;180.60;;
6027;SDS011;3042;43.194;27.646;2022-12-07T15:27:02;456.83;;;171.30;;
6027;SDS011;3042;43.194;27.646;2022-12-07T15:29:30;552.87;;;186.60;;
6027;SDS011;3042;43.194;27.646;2022-12-07T15:31:57;475.57;;;202.83;;
6027;SDS011;3042;43.194;27.646;2022-12-07T15:34:24;435.47;;;174.83;;